sensor_id;sensor_type;location;lat;lon;timestamp;P1;durP1;ratioP1;P2;durP2;ratioP2
1991;SDS011;997;48.448;8.924;2022-07-11T03:00:23;2.87;;;2.67;;
1991;SDS011;997;48.448;8.924;2022-07-11T03:02:49;3.30;;;3.00;;
1991;SDS011;997;48.448;8.924;2022-07-11T03:05:14;3.27;;;2.90;;
1991;SDS011;997;48.448;8.924;2022-07-11T03:07:40;3.00;;;2.80;;
1991;SDS011;997;48.448;8.924;2022-07-11T03:10:06;5.57;;;3.30;;
1991;SDS011;997;48.448;8.924;2022-07-11T03:12:32;3.97;;;2.80;;
1991;SDS011;997;48.448;8.924;2022-07-11T03:14:58;2.80;;;2.60;;
1991;SDS011;997;48.448;8.924;2022-07-11T03:17:24;3.47;;;2.40;;
1991;SDS011;997;48.448;8.924;2022-07-11T03:19:49;3.43;;;3.07;;
1991;SDS011;997;48.448;8.924;2022-07-11T03:22:15;3.40;;;2.57;;
1991;SDS011;997;48.448;8.924;2022-07-11T03:24:42;2.80;;;2.47;;
1991;SDS011;997;48.448;8.924;2022-07-11T03:27:08;3.00;;;2.80;;
1991;SDS011;997;48.448;8.924;2022-07-11T03:29:35;3.10;;;2.90;;
1991;SDS011;997;48.448;8.924;2022-07-11T03:32:01;2.93;;;2.73;;
1991;SDS011;997;48.448;8.924;2022-07-11T03:34:27;4.20;;;2.90;;
1991;SDS011;997;48.448;8.924;2022-07-11T03:36:53;2.90;;;2.70;;
1991;SDS011;997;48.448;8.924;2022-07-11T03:39:19;5.13;;;2.90;;
1991;SDS011;997;48.448;8.924;2022-07-11T03:41:48;2.73;;;2.53;;
1991;SDS011;997;48.448;8.924;2022-07-11T03:44:14;3.90;;;3.63;;
1991;SDS011;997;48.448;8.924;2022-07-11T03:46:39;2.53;;;2.23;;
1991;SDS011;997;48.448;8.924;2022-07-11T03:49:05;4.60;;;3.30;;
1991;SDS011;997;48.448;8.924;2022-07-11T03:51:31;3.33;;;2.50;;
1991;SDS011;997;48.448;8.924;2022-07-11T03:53:56;2.87;;;2.67;;
1991;SDS011;997;48.448;8.924;2022-07-11T03:56:22;3.40;;;3.10;;
1991;SDS011;997;48.448;8.924;2022-07-11T03:58:48;3.50;;;3.20;;
1991;SDS011;997;48.448;8.924;2022-07-11T04:01:15;3.37;;;3.07;;
1991;SDS011;997;48.448;8.924;2022-07-11T04:03:41;3.37;;;3.17;;
1991;SDS011;997;48.448;8.924;2022-07-11T04:06:07;3.03;;;2.83;;
1991;SDS011;997;48.448;8.924;2022-07-11T04:08:33;2.23;;;2.03;;
1991;SDS011;997;48.448;8.924;2022-07-11T04:10:58;4.27;;;3.10;;
1991;SDS011;997;48.448;8.924;2022-07-11T04:13:24;3.47;;;3.20;;
1991;SDS011;997;48.448;8.924;2022-07-11T04:15:50;3.93;;;2.63;;
1991;SDS011;997;48.448;8.924;2022-07-11T04:18:16;3.07;;;2.87;;
1991;SDS011;997;48.448;8.924;2022-07-11T04:20:42;3.53;;;3.33;;
1991;SDS011;997;48.448;8.924;2022-07-11T04:23:08;2.60;;;2.40;;
1991;SDS011;997;48.448;8.924;2022-07-11T04:25:34;6.23;;;2.60;;
1991;SDS011;997;48.448;8.924;2022-07-11T04:28:00;3.10;;;2.90;;
1991;SDS011;997;48.448;8.924;2022-07-11T04:30:26;3.07;;;2.87;;
1991;SDS011;997;48.448;8.924;2022-07-11T04:32:53;3.57;;;3.27;;
1991;SDS011;997;48.448;8.924;2022-07-11T04:35:20;3.00;;;2.80;;
1991;SDS011;997;48.448;8.924;2022-07-11T04:37:48;2.90;;;2.70;;
1991;SDS011;997;48.448;8.924;2022-07-11T04:40:13;3.00;;;2.80;;
1991;SDS011;997;48.448;8.924;2022-07-11T04:42:39;5.00;;;3.63;;
1991;SDS011;997;48.448;8.924;2022-07-11T04:45:05;6.50;;;3.83;;
1991;SDS011;997;48.448;8.924;2022-07-11T04:47:31;3.37;;;3.10;;
1991;SDS011;997;48.448;8.924;2022-07-11T04:49:57;3.57;;;3.27;;
1991;SDS011;997;48.448;8.924;2022-07-11T04:52:22;3.30;;;3.10;;
1991;SDS011;997;48.448;8.924;2022-07-11T04:54:51;3.93;;;3.57;;
1991;SDS011;997;48.448;8.924;2022-07-11T04:57:18;3.30;;;3.10;;
1991;SDS011;997;48.448;8.924;2022-07-11T04:59:44;4.37;;;3.30;;
1991;SDS011;997;48.448;8.924;2022-07-11T05:02:09;4.10;;;3.80;;
1991;SDS011;997;48.448;8.924;2022-07-11T05:04:35;3.83;;;3.47;;
1991;SDS011;997;48.448;8.924;2022-07-11T05:07:01;3.30;;;3.00;;
1991;SDS011;997;48.448;8.924;2022-07-11T05:09:27;4.03;;;3.73;;
1991;SDS011;997;48.448;8.924;2022-07-11T05:11:53;3.60;;;3.30;;
1991;SDS011;997;48.448;8.924;2022-07-11T05:14:18;3.73;;;3.30;;
1991;SDS011;997;48.448;8.924;2022-07-11T05:16:44;3.37;;;3.17;;
1991;SDS011;997;48.448;8.924;2022-07-11T05:19:10;4.87;;;4.47;;
1991;SDS011;997;48.448;8.924;2022-07-11T05:21:35;3.53;;;3.20;;
1991;SDS011;997;48.448;8.924;2022-07-11T05:24:02;3.80;;;3.30;;
1991;SDS011;997;48.448;8.924;2022-07-11T05:26:28;3.50;;;3.20;;
1991;SDS011;997;48.448;8.924;2022-07-11T05:28:54;3.50;;;3.30;;
1991;SDS011;997;48.448;8.924;2022-07-11T05:31:19;4.53;;;4.13;;
1991;SDS011;997;48.448;8.924;2022-07-11T05:33:45;4.00;;;3.70;;
1991;SDS011;997;48.448;8.924;2022-07-11T05:36:11;3.37;;;3.17;;
1991;SDS011;997;48.448;8.924;2022-07-11T05:38:37;3.60;;;3.30;;
1991;SDS011;997;48.448;8.924;2022-07-11T05:41:03;5.17;;;4.67;;
1991;SDS011;997;48.448;8.924;2022-07-11T05:43:29;4.43;;;4.03;;
1991;SDS011;997;48.448;8.924;2022-07-11T05:45:55;3.33;;;3.03;;
1991;SDS011;997;48.448;8.924;2022-07-11T05:48:20;3.63;;;3.33;;
1991;SDS011;997;48.448;8.924;2022-07-11T05:50:46;3.30;;;3.10;;
1991;SDS011;997;48.448;8.924;2022-07-11T05:53:12;3.67;;;3.37;;
1991;SDS011;997;48.448;8.924;2022-07-11T05:55:38;3.80;;;3.50;;
1991;SDS011;997;48.448;8.924;2022-07-11T05:58:04;3.73;;;3.40;;
1991;SDS011;997;48.448;8.924;2022-07-11T06:00:30;5.00;;;3.20;;
1991;SDS011;997;48.448;8.924;2022-07-11T06:02:55;3.23;;;2.80;;
1991;SDS011;997;48.448;8.924;2022-07-11T06:05:21;2.50;;;2.40;;
1991;SDS011;997;48.448;8.924;2022-07-11T06:07:47;3.03;;;2.83;;
1991;SDS011;997;48.448;8.924;2022-07-11T06:10:31;3.07;;;2.70;;
1991;SDS011;997;48.448;8.924;2022-07-11T06:12:59;3.97;;;2.83;;
1991;SDS011;997;48.448;8.924;2022-07-11T06:15:25;5.07;;;3.33;;
1991;SDS011;997;48.448;8.924;2022-07-11T06:17:51;3.07;;;2.80;;
1991;SDS011;997;48.448;8.924;2022-07-11T06:20:17;2.70;;;2.50;;
1991;SDS011;997;48.448;8.924;2022-07-11T06:22:43;3.33;;;3.03;;
1991;SDS011;997;48.448;8.924;2022-07-11T06:25:09;3.80;;;3.10;;
1991;SDS011;997;48.448;8.924;2022-07-11T06:27:35;3.80;;;3.40;;
1991;SDS011;997;48.448;8.924;2022-07-11T06:30:01;3.07;;;2.87;;
1991;SDS011;997;48.448;8.924;2022-07-11T06:32:27;3.33;;;2.67;;
1991;SDS011;997;48.448;8.924;2022-07-11T06:34:53;4.30;;;3.10;;
1991;SDS011;997;48.448;8.924;2022-07-11T06:37:19;3.00;;;2.80;;
1991;SDS011;997;48.448;8.924;2022-07-11T06:39:45;3.27;;;3.07;;
1991;SDS011;997;48.448;8.924;2022-07-11T06:42:10;3.83;;;3.47;;
1991;SDS011;997;48.448;8.924;2022-07-11T06:44:36;3.90;;;3.57;;
1991;SDS011;997;48.448;8.924;2022-07-11T06:47:02;3.43;;;3.13;;
1991;SDS011;997;48.448;8.924;2022-07-11T06:49:28;3.90;;;2.87;;
1991;SDS011;997;48.448;8.924;2022-07-11T06:51:53;3.77;;;3.47;;
1991;SDS011;997;48.448;8.924;2022-07-11T06:54:19;3.80;;;3.50;;
1991;SDS011;997;48.448;8.924;2022-07-11T06:56:44;4.37;;;3.40;;
1991;SDS011;997;48.448;8.924;2022-07-11T06:59:10;4.67;;;4.27;;
1991;SDS011;997;48.448;8.924;2022-07-11T07:01:37;4.90;;;4.40;;
1991;SDS011;997;48.448;8.924;2022-07-11T07:04:02;9.47;;;5.07;;
1991;SDS011;997;48.448;8.924;2022-07-11T07:06:28;5.57;;;5.10;;
1991;SDS011;997;48.448;8.924;2022-07-11T07:08:54;6.67;;;5.33;;
1991;SDS011;997;48.448;8.924;2022-07-11T07:11:19;7.77;;;7.20;;
1991;SDS011;997;48.448;8.924;2022-07-11T07:13:45;5.80;;;5.40;;
1991;SDS011;997;48.448;8.924;2022-07-11T07:16:12;6.17;;;5.60;;
1991;SDS011;997;48.448;8.924;2022-07-11T07:18:38;7.13;;;5.93;;
1991;SDS011;997;48.448;8.924;2022-07-11T07:21:06;5.87;;;5.47;;
1991;SDS011;997;48.448;8.924;2022-07-11T07:23:32;5.50;;;5.00;;
1991;SDS011;997;48.448;8.924;2022-07-11T07:25:58;5.20;;;4.80;;
1991;SDS011;997;48.448;8.924;2022-07-11T07:28:23;4.80;;;4.50;;
1991;SDS011;997;48.448;8.924;2022-07-11T07:30:53;5.17;;;4.73;;
1991;SDS011;997;48.448;8.924;2022-07-11T07:33:19;5.60;;;5.10;;
1991;SDS011;997;48.448;8.924;2022-07-11T07:35:45;5.93;;;5.40;;
1991;SDS011;997;48.448;8.924;2022-07-11T07:38:11;4.93;;;4.53;;
1991;SDS011;997;48.448;8.924;2022-07-11T07:40:37;3.90;;;3.60;;
1991;SDS011;997;48.448;8.924;2022-07-11T07:43:03;18.90;;;4.50;;
1991;SDS011;997;48.448;8.924;2022-07-11T07:45:29;4.03;;;3.63;;
1991;SDS011;997;48.448;8.924;2022-07-11T07:47:55;4.27;;;3.97;;
1991;SDS011;997;48.448;8.924;2022-07-11T07:50:21;3.70;;;3.43;;
1991;SDS011;997;48.448;8.924;2022-07-11T07:52:48;4.73;;;4.37;;
1991;SDS011;997;48.448;8.924;2022-07-11T07:55:13;5.60;;;4.43;;
1991;SDS011;997;48.448;8.924;2022-07-11T07:57:39;4.50;;;4.10;;
1991;SDS011;997;48.448;8.924;2022-07-11T08:00:05;3.00;;;2.80;;
1991;SDS011;997;48.448;8.924;2022-07-11T08:02:49;3.40;;;3.13;;
1991;SDS011;997;48.448;8.924;2022-07-11T08:05:16;2.80;;;2.60;;
1991;SDS011;997;48.448;8.924;2022-07-11T08:07:43;2.30;;;2.10;;
1991;SDS011;997;48.448;8.924;2022-07-11T08:10:09;2.40;;;2.17;;
1991;SDS011;997;48.448;8.924;2022-07-11T08:12:35;1.77;;;1.67;;
1991;SDS011;997;48.448;8.924;2022-07-11T08:15:00;1.53;;;1.43;;
1991;SDS011;997;48.448;8.924;2022-07-11T08:17:26;4.00;;;2.13;;
1991;SDS011;997;48.448;8.924;2022-07-11T08:19:52;1.87;;;1.70;;
1991;SDS011;997;48.448;8.924;2022-07-11T08:22:18;1.67;;;1.57;;
1991;SDS011;997;48.448;8.924;2022-07-11T08:24:43;1.60;;;1.50;;
1991;SDS011;997;48.448;8.924;2022-07-11T08:27:09;1.90;;;1.80;;
1991;SDS011;997;48.448;8.924;2022-07-11T08:29:35;1.70;;;1.60;;
1991;SDS011;997;48.448;8.924;2022-07-11T08:32:00;3.23;;;2.23;;
1991;SDS011;997;48.448;8.924;2022-07-11T08:34:26;1.57;;;1.33;;
1991;SDS011;997;48.448;8.924;2022-07-11T08:36:52;1.63;;;1.47;;
1991;SDS011;997;48.448;8.924;2022-07-11T08:39:17;1.40;;;1.30;;
1991;SDS011;997;48.448;8.924;2022-07-11T08:41:43;1.10;;;1.00;;
1991;SDS011;997;48.448;8.924;2022-07-11T08:44:12;1.17;;;1.10;;
1991;SDS011;997;48.448;8.924;2022-07-11T08:46:39;1.43;;;1.33;;
1991;SDS011;997;48.448;8.924;2022-07-11T08:49:06;1.17;;;1.07;;
1991;SDS011;997;48.448;8.924;2022-07-11T08:51:32;1.00;;;0.80;;
1991;SDS011;997;48.448;8.924;2022-07-11T08:54:01;1.30;;;1.20;;
1991;SDS011;997;48.448;8.924;2022-07-11T08:56:27;1.30;;;1.20;;
1991;SDS011;997;48.448;8.924;2022-07-11T08:58:54;1.33;;;1.23;;
1991;SDS011;997;48.448;8.924;2022-07-11T09:01:27;1.10;;;1.00;;
1991;SDS011;997;48.448;8.924;2022-07-11T09:03:56;1.50;;;1.40;;
1991;SDS011;997;48.448;8.924;2022-07-11T09:06:22;1.50;;;1.40;;
1991;SDS011;997;48.448;8.924;2022-07-11T09:08:48;1.50;;;1.40;;
1991;SDS011;997;48.448;8.924;2022-07-11T09:11:14;1.00;;;0.80;;
1991;SDS011;997;48.448;8.924;2022-07-11T09:13:40;0.83;;;0.83;;
1991;SDS011;997;48.448;8.924;2022-07-11T09:16:07;1.03;;;0.93;;
1991;SDS011;997;48.448;8.924;2022-07-11T09:18:37;1.40;;;1.13;;
1991;SDS011;997;48.448;8.924;2022-07-11T09:21:08;1.10;;;0.73;;
1991;SDS011;997;48.448;8.924;2022-07-11T09:23:54;0.73;;;0.50;;
1991;SDS011;997;48.448;8.924;2022-07-11T09:26:41;0.93;;;0.70;;
1991;SDS011;997;48.448;8.924;2022-07-11T09:29:18;0.60;;;0.50;;
1991;SDS011;997;48.448;8.924;2022-07-11T09:31:45;0.73;;;0.60;;
1991;SDS011;997;48.448;8.924;2022-07-11T09:34:12;0.80;;;0.80;;
1991;SDS011;997;48.448;8.924;2022-07-11T09:36:43;0.90;;;0.90;;
1991;SDS011;997;48.448;8.924;2022-07-11T09:39:12;1.17;;;0.80;;
1991;SDS011;997;48.448;8.924;2022-07-11T09:41:40;1.10;;;1.10;;
1991;SDS011;997;48.448;8.924;2022-07-11T09:44:10;0.80;;;0.70;;
1991;SDS011;997;48.448;8.924;2022-07-11T09:46:37;1.10;;;1.00;;
1991;SDS011;997;48.448;8.924;2022-07-11T09:49:05;2.97;;;1.60;;
1991;SDS011;997;48.448;8.924;2022-07-11T09:51:32;1.27;;;1.17;;
1991;SDS011;997;48.448;8.924;2022-07-11T09:53:58;2.13;;;1.93;;
1991;SDS011;997;48.448;8.924;2022-07-11T09:56:25;1.60;;;1.50;;
1991;SDS011;997;48.448;8.924;2022-07-11T09:59:00;2.50;;;1.83;;
1991;SDS011;997;48.448;8.924;2022-07-11T10:01:27;1.63;;;1.40;;
1991;SDS011;997;48.448;8.924;2022-07-11T10:03:56;1.30;;;1.20;;
1991;SDS011;997;48.448;8.924;2022-07-11T10:06:23;1.10;;;1.00;;
1991;SDS011;997;48.448;8.924;2022-07-11T10:08:50;1.20;;;1.00;;
1991;SDS011;997;48.448;8.924;2022-07-11T10:11:17;1.30;;;1.20;;
1991;SDS011;997;48.448;8.924;2022-07-11T10:13:44;1.60;;;1.50;;
1991;SDS011;997;48.448;8.924;2022-07-11T10:24:44;3.40;;;1.23;;
1991;SDS011;997;48.448;8.924;2022-07-11T10:30:01;1.40;;;1.30;;
1991;SDS011;997;48.448;8.924;2022-07-11T10:32:27;1.37;;;1.27;;
1991;SDS011;997;48.448;8.924;2022-07-11T10:35:09;1.87;;;1.20;;
1991;SDS011;997;48.448;8.924;2022-07-11T10:37:46;2.57;;;1.20;;
1991;SDS011;997;48.448;8.924;2022-07-11T10:40:12;1.10;;;1.00;;
1991;SDS011;997;48.448;8.924;2022-07-11T10:42:39;2.97;;;1.70;;
1991;SDS011;997;48.448;8.924;2022-07-11T10:45:07;1.20;;;1.10;;
1991;SDS011;997;48.448;8.924;2022-07-11T10:52:56;1.00;;;0.90;;
1991;SDS011;997;48.448;8.924;2022-07-11T10:55:34;1.60;;;0.87;;
1991;SDS011;997;48.448;8.924;2022-07-11T10:58:05;1.03;;;0.93;;
1991;SDS011;997;48.448;8.924;2022-07-11T11:00:36;0.97;;;0.63;;
1991;SDS011;997;48.448;8.924;2022-07-11T11:03:05;1.07;;;0.97;;
1991;SDS011;997;48.448;8.924;2022-07-11T11:05:39;2.30;;;0.97;;
1991;SDS011;997;48.448;8.924;2022-07-11T11:16:42;1.10;;;1.00;;
1991;SDS011;997;48.448;8.924;2022-07-11T11:22:12;1.10;;;1.00;;
1991;SDS011;997;48.448;8.924;2022-07-11T11:24:38;0.90;;;0.90;;
1991;SDS011;997;48.448;8.924;2022-07-11T11:27:03;1.07;;;0.97;;
1991;SDS011;997;48.448;8.924;2022-07-11T11:29:30;0.97;;;0.97;;
1991;SDS011;997;48.448;8.924;2022-07-11T11:31:57;1.47;;;1.37;;
1991;SDS011;997;48.448;8.924;2022-07-11T11:34:24;1.53;;;1.43;;
1991;SDS011;997;48.448;8.924;2022-07-11T11:36:51;1.07;;;1.00;;
1991;SDS011;997;48.448;8.924;2022-07-11T11:39:22;1.20;;;1.10;;
1991;SDS011;997;48.448;8.924;2022-07-11T11:41:50;1.13;;;1.03;;
1991;SDS011;997;48.448;8.924;2022-07-11T11:44:16;1.10;;;1.00;;
1991;SDS011;997;48.448;8.924;2022-07-11T11:46:42;1.30;;;1.20;;
1991;SDS011;997;48.448;8.924;2022-07-11T11:49:07;1.00;;;1.00;;
1991;SDS011;997;48.448;8.924;2022-07-11T11:51:34;1.30;;;1.20;;
1991;SDS011;997;48.448;8.924;2022-07-11T11:54:00;1.40;;;1.30;;
1991;SDS011;997;48.448;8.924;2022-07-11T11:56:31;0.93;;;0.90;;
1991;SDS011;997;48.448;8.924;2022-07-11T11:59:00;1.23;;;1.13;;
1991;SDS011;997;48.448;8.924;2022-07-11T12:01:29;1.10;;;1.00;;
1991;SDS011;997;48.448;8.924;2022-07-11T12:03:57;2.90;;;1.07;;
1991;SDS011;997;48.448;8.924;2022-07-11T12:06:24;2.47;;;1.30;;
1991;SDS011;997;48.448;8.924;2022-07-11T12:09:01;1.50;;;1.40;;
1991;SDS011;997;48.448;8.924;2022-07-11T12:11:30;1.30;;;1.20;;
1991;SDS011;997;48.448;8.924;2022-07-11T12:13:57;2.27;;;1.03;;
1991;SDS011;997;48.448;8.924;2022-07-11T12:16:23;1.20;;;1.10;;
1991;SDS011;997;48.448;8.924;2022-07-11T12:19:04;1.70;;;1.30;;
1991;SDS011;997;48.448;8.924;2022-07-11T12:21:34;2.60;;;1.20;;
1991;SDS011;997;48.448;8.924;2022-07-11T12:24:02;1.20;;;1.10;;
1991;SDS011;997;48.448;8.924;2022-07-11T12:26:30;1.57;;;1.47;;
1991;SDS011;997;48.448;8.924;2022-07-11T12:34:09;1.53;;;1.27;;
1991;SDS011;997;48.448;8.924;2022-07-11T12:36:34;1.67;;;1.17;;
1991;SDS011;997;48.448;8.924;2022-07-11T12:39:00;1.73;;;1.17;;
1991;SDS011;997;48.448;8.924;2022-07-11T12:41:28;1.40;;;1.30;;
1991;SDS011;997;48.448;8.924;2022-07-11T12:43:54;1.53;;;1.13;;
1991;SDS011;997;48.448;8.924;2022-07-11T12:46:39;1.30;;;1.20;;
1991;SDS011;997;48.448;8.924;2022-07-11T12:49:09;1.60;;;1.50;;
1991;SDS011;997;48.448;8.924;2022-07-11T12:51:36;3.10;;;1.20;;
1991;SDS011;997;48.448;8.924;2022-07-11T12:54:07;1.20;;;0.93;;
1991;SDS011;997;48.448;8.924;2022-07-11T12:56:35;1.83;;;1.20;;
1991;SDS011;997;48.448;8.924;2022-07-11T12:59:02;2.50;;;1.13;;
1991;SDS011;997;48.448;8.924;2022-07-11T13:01:29;1.80;;;1.30;;
1991;SDS011;997;48.448;8.924;2022-07-11T13:03:55;1.20;;;1.10;;
1991;SDS011;997;48.448;8.924;2022-07-11T13:06:21;0.90;;;0.90;;
1991;SDS011;997;48.448;8.924;2022-07-11T13:09:06;1.27;;;1.17;;
1991;SDS011;997;48.448;8.924;2022-07-11T13:11:33;1.83;;;1.63;;
1991;SDS011;997;48.448;8.924;2022-07-11T13:13:59;1.30;;;1.20;;
1991;SDS011;997;48.448;8.924;2022-07-11T13:16:25;1.13;;;1.03;;
1991;SDS011;997;48.448;8.924;2022-07-11T13:18:51;1.27;;;1.17;;
1991;SDS011;997;48.448;8.924;2022-07-11T13:21:17;0.80;;;0.80;;
1991;SDS011;997;48.448;8.924;2022-07-11T13:23:43;2.60;;;1.40;;
1991;SDS011;997;48.448;8.924;2022-07-11T13:26:10;2.03;;;1.50;;
1991;SDS011;997;48.448;8.924;2022-07-11T13:28:36;1.30;;;1.13;;
1991;SDS011;997;48.448;8.924;2022-07-11T13:31:03;1.43;;;1.33;;
1991;SDS011;997;48.448;8.924;2022-07-11T13:33:32;1.30;;;1.20;;
1991;SDS011;997;48.448;8.924;2022-07-11T13:35:58;1.27;;;1.17;;
1991;SDS011;997;48.448;8.924;2022-07-11T13:38:23;1.60;;;1.10;;
1991;SDS011;997;48.448;8.924;2022-07-11T13:40:49;1.40;;;1.10;;
1991;SDS011;997;48.448;8.924;2022-07-11T13:43:15;1.27;;;1.17;;
1991;SDS011;997;48.448;8.924;2022-07-11T13:45:41;2.23;;;1.80;;
1991;SDS011;997;48.448;8.924;2022-07-11T13:48:09;1.90;;;1.10;;
1991;SDS011;997;48.448;8.924;2022-07-11T13:50:36;1.93;;;1.00;;
1991;SDS011;997;48.448;8.924;2022-07-11T13:53:02;1.37;;;1.17;;
1991;SDS011;997;48.448;8.924;2022-07-11T13:55:28;2.17;;;1.40;;
1991;SDS011;997;48.448;8.924;2022-07-11T13:57:54;2.73;;;1.53;;
1991;SDS011;997;48.448;8.924;2022-07-11T14:00:24;1.30;;;1.20;;
1991;SDS011;997;48.448;8.924;2022-07-11T14:02:51;2.10;;;1.90;;
1991;SDS011;997;48.448;8.924;2022-07-11T14:05:17;1.70;;;1.60;;
1991;SDS011;997;48.448;8.924;2022-07-11T14:07:44;1.97;;;1.67;;
1991;SDS011;997;48.448;8.924;2022-07-11T14:10:12;1.30;;;1.20;;
1991;SDS011;997;48.448;8.924;2022-07-11T14:12:39;1.60;;;1.50;;
1991;SDS011;997;48.448;8.924;2022-07-11T14:15:05;1.30;;;1.00;;
1991;SDS011;997;48.448;8.924;2022-07-11T14:17:33;0.90;;;0.90;;
1991;SDS011;997;48.448;8.924;2022-07-11T14:19:59;1.53;;;1.20;;
1991;SDS011;997;48.448;8.924;2022-07-11T14:22:24;1.73;;;1.27;;
1991;SDS011;997;48.448;8.924;2022-07-11T14:24:50;1.77;;;1.40;;
1991;SDS011;997;48.448;8.924;2022-07-11T14:27:16;1.87;;;1.47;;
1991;SDS011;997;48.448;8.924;2022-07-11T14:29:42;2.10;;;1.43;;
1991;SDS011;997;48.448;8.924;2022-07-11T14:32:09;1.60;;;1.50;;
1991;SDS011;997;48.448;8.924;2022-07-11T14:34:36;1.30;;;1.20;;
1991;SDS011;997;48.448;8.924;2022-07-11T14:37:02;2.60;;;2.40;;
1991;SDS011;997;48.448;8.924;2022-07-11T14:39:29;1.73;;;1.47;;
1991;SDS011;997;48.448;8.924;2022-07-11T14:41:54;1.77;;;1.17;;
1991;SDS011;997;48.448;8.924;2022-07-11T14:44:20;1.30;;;1.20;;
1991;SDS011;997;48.448;8.924;2022-07-11T14:46:46;1.17;;;1.07;;
1991;SDS011;997;48.448;8.924;2022-07-11T14:49:12;1.40;;;1.20;;
1991;SDS011;997;48.448;8.924;2022-07-11T14:51:38;1.60;;;1.50;;
1991;SDS011;997;48.448;8.924;2022-07-11T14:54:04;1.57;;;1.47;;
1991;SDS011;997;48.448;8.924;2022-07-11T14:56:30;1.40;;;1.30;;
1991;SDS011;997;48.448;8.924;2022-07-11T14:58:57;1.60;;;1.50;;
1991;SDS011;997;48.448;8.924;2022-07-11T15:01:22;1.37;;;1.27;;
1991;SDS011;997;48.448;8.924;2022-07-11T15:03:48;1.13;;;1.10;;
1991;SDS011;997;48.448;8.924;2022-07-11T15:06:14;2.13;;;2.00;;
1991;SDS011;997;48.448;8.924;2022-07-11T15:08:41;1.20;;;1.10;;
1991;SDS011;997;48.448;8.924;2022-07-11T15:11:26;1.57;;;1.47;;
1991;SDS011;997;48.448;8.924;2022-07-11T15:14:11;1.40;;;1.30;;
1991;SDS011;997;48.448;8.924;2022-07-11T15:16:38;1.80;;;1.70;;
1991;SDS011;997;48.448;8.924;2022-07-11T15:19:05;1.73;;;1.63;;
1991;SDS011;997;48.448;8.924;2022-07-11T15:21:32;2.00;;;1.37;;
1991;SDS011;997;48.448;8.924;2022-07-11T15:23:58;1.57;;;1.33;;
1991;SDS011;997;48.448;8.924;2022-07-11T15:26:24;1.33;;;1.23;;
1991;SDS011;997;48.448;8.924;2022-07-11T15:28:51;3.67;;;1.67;;
1991;SDS011;997;48.448;8.924;2022-07-11T15:31:17;2.70;;;1.90;;
1991;SDS011;997;48.448;8.924;2022-07-11T15:33:43;1.90;;;1.40;;
1991;SDS011;997;48.448;8.924;2022-07-11T15:36:10;1.60;;;1.50;;
1991;SDS011;997;48.448;8.924;2022-07-11T15:38:36;1.43;;;1.33;;
1991;SDS011;997;48.448;8.924;2022-07-11T15:41:02;1.53;;;1.20;;
1991;SDS011;997;48.448;8.924;2022-07-11T15:43:28;1.63;;;1.53;;
1991;SDS011;997;48.448;8.924;2022-07-11T15:45:57;2.43;;;1.63;;
1991;SDS011;997;48.448;8.924;2022-07-11T15:48:25;1.60;;;1.50;;
1991;SDS011;997;48.448;8.924;2022-07-11T15:50:52;2.17;;;1.27;;
1991;SDS011;997;48.448;8.924;2022-07-11T15:53:18;3.20;;;2.23;;
1991;SDS011;997;48.448;8.924;2022-07-11T15:55:44;2.00;;;1.57;;
1991;SDS011;997;48.448;8.924;2022-07-11T15:58:11;1.53;;;1.30;;
1991;SDS011;997;48.448;8.924;2022-07-11T16:00:37;1.63;;;1.53;;
1991;SDS011;997;48.448;8.924;2022-07-11T16:03:04;1.53;;;1.43;;
1991;SDS011;997;48.448;8.924;2022-07-11T16:05:30;2.60;;;1.77;;
1991;SDS011;997;48.448;8.924;2022-07-11T16:07:56;2.10;;;1.37;;
1991;SDS011;997;48.448;8.924;2022-07-11T16:10:21;1.87;;;1.77;;
1991;SDS011;997;48.448;8.924;2022-07-11T16:12:47;2.07;;;1.97;;
1991;SDS011;997;48.448;8.924;2022-07-11T16:15:13;1.40;;;1.30;;
1991;SDS011;997;48.448;8.924;2022-07-11T16:17:39;1.70;;;1.60;;
1991;SDS011;997;48.448;8.924;2022-07-11T16:20:05;2.60;;;1.83;;
1991;SDS011;997;48.448;8.924;2022-07-11T16:22:31;2.00;;;1.80;;
1991;SDS011;997;48.448;8.924;2022-07-11T16:24:57;2.37;;;1.83;;
1991;SDS011;997;48.448;8.924;2022-07-11T16:27:25;2.63;;;1.90;;
1991;SDS011;997;48.448;8.924;2022-07-11T16:29:51;1.50;;;1.40;;
1991;SDS011;997;48.448;8.924;2022-07-11T16:32:16;1.57;;;1.47;;
1991;SDS011;997;48.448;8.924;2022-07-11T16:34:42;1.87;;;1.77;;
1991;SDS011;997;48.448;8.924;2022-07-11T16:37:08;2.20;;;1.70;;
1991;SDS011;997;48.448;8.924;2022-07-11T16:39:33;2.23;;;1.83;;
1991;SDS011;997;48.448;8.924;2022-07-11T16:42:19;1.90;;;1.73;;
1991;SDS011;997;48.448;8.924;2022-07-11T16:45:03;1.60;;;1.50;;
1991;SDS011;997;48.448;8.924;2022-07-11T16:47:29;2.57;;;1.70;;
1991;SDS011;997;48.448;8.924;2022-07-11T16:49:54;2.67;;;1.93;;
1991;SDS011;997;48.448;8.924;2022-07-11T16:52:20;3.73;;;2.50;;
1991;SDS011;997;48.448;8.924;2022-07-11T16:54:46;2.57;;;1.97;;
1991;SDS011;997;48.448;8.924;2022-07-11T16:57:12;2.70;;;1.43;;
1991;SDS011;997;48.448;8.924;2022-07-11T16:59:40;2.10;;;1.80;;
1991;SDS011;997;48.448;8.924;2022-07-11T17:02:06;1.90;;;1.70;;
1991;SDS011;997;48.448;8.924;2022-07-11T17:04:32;2.00;;;1.50;;
1991;SDS011;997;48.448;8.924;2022-07-11T17:06:58;1.83;;;1.73;;
1991;SDS011;997;48.448;8.924;2022-07-11T17:09:24;1.87;;;1.77;;
1991;SDS011;997;48.448;8.924;2022-07-11T17:11:50;2.43;;;2.27;;
1991;SDS011;997;48.448;8.924;2022-07-11T17:14:16;2.13;;;1.83;;
1991;SDS011;997;48.448;8.924;2022-07-11T17:16:41;2.67;;;2.07;;
1991;SDS011;997;48.448;8.924;2022-07-11T17:19:07;2.10;;;1.90;;
1991;SDS011;997;48.448;8.924;2022-07-11T17:21:33;3.20;;;1.87;;
1991;SDS011;997;48.448;8.924;2022-07-11T17:23:59;1.93;;;1.73;;
1991;SDS011;997;48.448;8.924;2022-07-11T17:26:25;1.93;;;1.77;;
1991;SDS011;997;48.448;8.924;2022-07-11T17:28:53;2.20;;;1.50;;
1991;SDS011;997;48.448;8.924;2022-07-11T17:31:19;2.50;;;1.90;;
1991;SDS011;997;48.448;8.924;2022-07-11T17:33:44;1.90;;;1.80;;
1991;SDS011;997;48.448;8.924;2022-07-11T17:36:10;2.30;;;2.03;;
1991;SDS011;997;48.448;8.924;2022-07-11T17:38:36;2.10;;;1.90;;
1991;SDS011;997;48.448;8.924;2022-07-11T17:41:03;2.20;;;1.70;;
1991;SDS011;997;48.448;8.924;2022-07-11T17:43:31;2.10;;;2.00;;
1991;SDS011;997;48.448;8.924;2022-07-11T17:45:57;1.80;;;1.70;;
1991;SDS011;997;48.448;8.924;2022-07-11T17:48:22;2.30;;;2.10;;
1991;SDS011;997;48.448;8.924;2022-07-11T17:50:51;1.80;;;1.70;;
1991;SDS011;997;48.448;8.924;2022-07-11T17:53:17;1.93;;;1.83;;
1991;SDS011;997;48.448;8.924;2022-07-11T17:55:43;2.50;;;2.30;;
1991;SDS011;997;48.448;8.924;2022-07-11T17:58:09;1.87;;;1.77;;
1991;SDS011;997;48.448;8.924;2022-07-11T18:00:35;2.53;;;2.40;;
1991;SDS011;997;48.448;8.924;2022-07-11T18:03:01;2.87;;;1.90;;
1991;SDS011;997;48.448;8.924;2022-07-11T18:05:27;2.80;;;1.90;;
1991;SDS011;997;48.448;8.924;2022-07-11T18:07:53;2.70;;;2.50;;
1991;SDS011;997;48.448;8.924;2022-07-11T18:10:19;2.50;;;2.30;;
1991;SDS011;997;48.448;8.924;2022-07-11T18:12:45;4.07;;;2.67;;
1991;SDS011;997;48.448;8.924;2022-07-11T18:15:12;2.30;;;2.10;;
1991;SDS011;997;48.448;8.924;2022-07-11T18:17:38;3.10;;;2.80;;
1991;SDS011;997;48.448;8.924;2022-07-11T18:20:05;2.67;;;2.57;;
1991;SDS011;997;48.448;8.924;2022-07-11T18:22:32;4.03;;;2.40;;
1991;SDS011;997;48.448;8.924;2022-07-11T18:24:58;2.53;;;2.33;;
1991;SDS011;997;48.448;8.924;2022-07-11T18:27:26;3.20;;;2.37;;
1991;SDS011;997;48.448;8.924;2022-07-11T18:29:52;2.60;;;2.40;;
1991;SDS011;997;48.448;8.924;2022-07-11T18:32:18;1.90;;;1.80;;
1991;SDS011;997;48.448;8.924;2022-07-11T18:34:44;2.60;;;2.40;;
1991;SDS011;997;48.448;8.924;2022-07-11T18:37:09;2.80;;;2.60;;
1991;SDS011;997;48.448;8.924;2022-07-11T18:39:35;2.47;;;2.13;;
1991;SDS011;997;48.448;8.924;2022-07-11T18:42:19;2.90;;;2.70;;
1991;SDS011;997;48.448;8.924;2022-07-11T18:44:45;2.80;;;2.60;;
1991;SDS011;997;48.448;8.924;2022-07-11T18:47:12;2.73;;;2.20;;
1991;SDS011;997;48.448;8.924;2022-07-11T18:49:38;2.90;;;2.70;;
1991;SDS011;997;48.448;8.924;2022-07-11T18:52:03;2.40;;;2.30;;
1991;SDS011;997;48.448;8.924;2022-07-11T18:54:30;3.13;;;2.70;;
1991;SDS011;997;48.448;8.924;2022-07-11T18:56:56;3.77;;;2.90;;
1991;SDS011;997;48.448;8.924;2022-07-11T18:59:23;4.00;;;2.60;;
1991;SDS011;997;48.448;8.924;2022-07-11T19:01:49;2.40;;;2.20;;